Time;durP1;ratioP1;P1;durP2;ratioP2;P2;SDS_P1;SDS_P2;PMS_P1;PMS_P2;Temp;Humidity;BMP_temperature;BMP_pressure;BME280_temperature;BME280_humidity;BME280_pressure;Samples;Min_cycle;Max_cycle;Signal;HPM_P1;HPM_P2
2024/01/07 00:01:29;;;;;;;9.57;6.60;;;11.20;49.80;;;;;;5024563;28;20499;-77
2024/01/07 00:03:58;;;;;;;13.20;6.90;;;11.20;49.60;;;;;;5031916;28;20489;-77
2024/01/07 00:06:26;;;;;;;9.70;7.40;;;11.20;50.10;;;;;;5035778;28;20439;-76
2024/01/07 00:08:54;;;;;;;8.57;6.60;;;11.20;49.90;;;;;;5048840;28;20525;-77
2024/01/07 00:11:22;;;;;;;14.30;7.50;;;11.20;49.70;;;;;;5049669;28;20446;-76
2024/01/07 00:13:52;;;;;;;14.87;7.10;;;11.10;49.40;;;;;;5039375;28;20563;-78
2024/01/07 00:16:20;;;;;;;10.20;6.70;;;11.20;49.80;;;;;;5049678;28;20492;-77
2024/01/07 00:18:48;;;;;;;11.93;6.30;;;11.20;49.60;;;;;;5049409;28;20479;-76
2024/01/07 00:21:19;;;;;;;9.83;6.60;;;11.10;49.50;;;;;;5057004;28;20509;-77
2024/01/07 00:23:48;;;;;;;8.63;6.40;;;11.10;49.40;;;;;;5043574;28;20468;-78
2024/01/07 00:26:16;;;;;;;11.57;6.33;;;11.10;49.40;;;;;;5045407;28;20454;-75
2024/01/07 00:28:44;;;;;;;9.60;6.57;;;11.10;49.20;;;;;;5047206;28;20454;-75
2024/01/07 00:31:14;;;;;;;11.83;6.70;;;11.10;49.50;;;;;;5041519;28;20505;-75
2024/01/07 00:33:42;;;;;;;7.40;6.10;;;11.10;49.60;;;;;;5037571;28;20432;-77
2024/01/07 00:36:11;;;;;;;8.43;6.13;;;11.10;49.60;;;;;;5048046;28;20482;-76
2024/01/07 00:38:39;;;;;;;11.93;6.10;;;11.10;49.50;;;;;;5057739;28;20496;-75
2024/01/07 00:41:07;;;;;;;9.63;6.00;;;11.10;49.50;;;;;;5055746;28;20475;-76
2024/01/07 00:43:35;;;;;;;11.30;7.00;;;11.20;49.10;;;;;;5047463;28;20442;-78
2024/01/07 00:46:03;;;;;;;9.67;5.83;;;11.00;49.00;;;;;;5053519;28;20522;-76
2024/01/07 00:48:33;;;;;;;10.50;6.03;;;10.90;49.50;;;;;;5054392;28;20446;-75
2024/01/07 00:51:01;;;;;;;7.73;5.53;;;10.90;49.50;;;;;;5054620;28;20507;-74
2024/01/07 00:53:29;;;;;;;8.00;6.20;;;11.00;49.50;;;;;;5051773;28;20468;-77
2024/01/07 00:55:56;;;;;;;6.47;5.10;;;10.90;49.80;;;;;;5043591;28;20541;-77
2024/01/07 00:58:24;;;;;;;7.60;5.57;;;11.00;49.40;;;;;;5044525;28;20561;-77
2024/01/07 01:00:53;;;;;;;10.70;6.00;;;11.00;49.10;;;;;;5049204;28;20549;-76
2024/01/07 01:03:22;;;;;;;8.10;5.43;;;10.90;49.60;;;;;;5048298;28;20450;-76
2024/01/07 01:05:52;;;;;;;6.30;5.20;;;11.00;49.70;;;;;;5051877;28;20463;-76
2024/01/07 01:08:21;;;;;;;8.23;5.30;;;11.00;49.40;;;;;;5050336;28;20473;-76
2024/01/07 01:10:48;;;;;;;6.37;5.10;;;11.00;49.40;;;;;;5054617;28;20526;-76
2024/01/07 01:13:16;;;;;;;6.60;5.37;;;11.00;49.00;;;;;;5050350;28;20541;-77
2024/01/07 01:15:44;;;;;;;7.80;5.17;;;10.90;48.90;;;;;;5053842;28;20547;-76
2024/01/07 01:18:12;;;;;;;11.30;5.27;;;10.90;48.90;;;;;;5060062;28;20543;-77
2024/01/07 01:20:40;;;;;;;7.53;5.10;;;10.90;49.00;;;;;;5061283;28;20465;-77
2024/01/07 01:23:10;;;;;;;5.10;4.60;;;10.90;48.90;;;;;;5063418;28;20516;-76
2024/01/07 01:25:39;;;;;;;8.23;5.60;;;10.90;49.00;;;;;;5054757;28;20831;-76
2024/01/07 01:28:08;;;;;;;8.80;5.63;;;10.90;49.10;;;;;;5052747;28;20438;-77
2024/01/07 01:30:36;;;;;;;7.83;5.10;;;10.90;49.20;;;;;;5050470;28;20453;-77
2024/01/07 01:33:05;;;;;;;6.23;5.17;;;10.90;49.00;;;;;;5063456;28;20541;-80
2024/01/07 01:35:33;;;;;;;6.80;5.07;;;10.90;48.90;;;;;;5062590;28;20473;-76
2024/01/07 01:38:01;;;;;;;6.43;4.83;;;10.90;48.90;;;;;;5056709;28;20916;-77
2024/01/07 01:40:31;;;;;;;7.70;4.70;;;10.90;48.90;;;;;;5050129;28;20438;-75
2024/01/07 01:42:58;;;;;;;5.67;5.07;;;10.90;49.30;;;;;;5054002;28;20434;-78
2024/01/07 01:45:27;;;;;;;5.20;4.33;;;10.90;48.70;;;;;;5059027;28;20454;-79
2024/01/07 01:47:55;;;;;;;5.60;4.37;;;10.80;48.70;;;;;;5054685;28;20457;-78
2024/01/07 01:50:23;;;;;;;5.57;4.70;;;10.80;48.80;;;;;;5048017;28;20571;-77
2024/01/07 01:52:51;;;;;;;7.53;4.93;;;10.80;48.60;;;;;;5055539;28;20442;-77
2024/01/07 01:55:20;;;;;;;7.77;5.33;;;10.90;48.80;;;;;;5055142;28;20524;-78
2024/01/07 01:57:49;;;;;;;5.53;4.30;;;10.90;48.20;;;;;;5059448;28;20470;-76
2024/01/07 02:00:18;;;;;;;5.60;4.10;;;10.80;47.80;;;;;;5060278;28;20454;-76
2024/01/07 02:02:46;;;;;;;4.40;3.90;;;10.70;48.30;;;;;;5051783;28;20477;-78
2024/01/07 02:05:14;;;;;;;5.37;4.47;;;10.70;48.30;;;;;;5052684;28;20500;-78
2024/01/07 02:07:43;;;;;;;8.20;4.40;;;10.70;47.70;;;;;;5069401;28;20507;-76
2024/01/07 02:10:12;;;;;;;3.87;3.47;;;10.80;47.90;;;;;;5056606;28;20445;-76
2024/01/07 02:12:41;;;;;;;3.57;3.20;;;10.70;47.70;;;;;;5057642;28;20449;-78
2024/01/07 02:15:10;;;;;;;4.97;3.50;;;10.70;47.90;;;;;;5053021;28;20462;-78
2024/01/07 02:17:38;;;;;;;4.73;3.73;;;10.70;48.00;;;;;;5049208;28;20502;-77
2024/01/07 02:20:07;;;;;;;4.20;3.70;;;10.70;47.90;;;;;;5055853;28;20442;-77
2024/01/07 02:22:36;;;;;;;3.37;3.07;;;10.80;47.80;;;;;;5047977;28;20454;-76
2024/01/07 02:25:06;;;;;;;4.03;3.37;;;10.80;47.40;;;;;;5064480;28;20556;-78
2024/01/07 02:27:34;;;;;;;3.40;3.10;;;10.80;47.20;;;;;;5061453;28;20443;-76
2024/01/07 02:30:03;;;;;;;6.40;4.03;;;10.60;47.30;;;;;;5050294;28;20445;-76
2024/01/07 02:32:34;;;;;;;3.87;3.20;;;10.70;47.20;;;;;;5053361;28;20453;-77
2024/01/07 02:35:02;;;;;;;3.23;3.03;;;10.70;46.80;;;;;;5048224;28;20462;-78
2024/01/07 02:37:30;;;;;;;3.30;2.97;;;10.70;46.90;;;;;;5064940;28;20521;-76
2024/01/07 02:39:58;;;;;;;3.20;3.00;;;10.70;46.90;;;;;;5060240;28;20510;-76
2024/01/07 02:42:30;;;;;;;4.00;3.23;;;10.60;46.30;;;;;;5055142;28;20502;-77
2024/01/07 02:44:58;;;;;;;3.77;2.80;;;10.50;46.30;;;;;;5071807;28;20806;-77
2024/01/07 02:47:26;;;;;;;5.30;3.30;;;10.60;46.30;;;;;;5065993;28;20462;-77
2024/01/07 02:49:54;;;;;;;2.90;2.70;;;10.60;46.20;;;;;;5062935;28;20445;-78
2024/01/07 02:52:22;;;;;;;4.80;2.90;;;10.60;45.80;;;;;;5053171;28;20466;-76
2024/01/07 02:54:51;;;;;;;2.70;2.50;;;10.60;45.70;;;;;;5053601;28;20475;-78
2024/01/07 02:57:19;;;;;;;3.90;3.30;;;10.50;45.80;;;;;;5069449;28;20462;-76
2024/01/07 02:59:49;;;;;;;6.33;3.47;;;10.60;45.60;;;;;;5062939;28;20466;-77
2024/01/07 03:02:17;;;;;;;3.10;2.90;;;10.50;46.00;;;;;;5063918;28;20490;-78
2024/01/07 03:04:46;;;;;;;3.23;2.93;;;10.60;45.90;;;;;;5051920;28;20486;-78
2024/01/07 03:07:14;;;;;;;3.37;3.00;;;10.60;46.30;;;;;;5067555;28;20481;-77
2024/01/07 03:09:42;;;;;;;5.33;3.60;;;10.60;46.40;;;;;;5053484;28;20474;-77
2024/01/07 03:12:13;;;;;;;3.50;3.20;;;10.60;46.10;;;;;;5068895;28;20442;-76
2024/01/07 03:14:42;;;;;;;3.40;3.10;;;10.50;46.10;;;;;;5072217;28;20556;-76
2024/01/07 03:17:12;;;;;;;5.70;4.13;;;10.50;46.20;;;;;;5055796;28;20472;-76
2024/01/07 03:19:40;;;;;;;4.40;3.63;;;10.50;46.30;;;;;;5071908;28;20890;-76
2024/01/07 03:22:08;;;;;;;6.03;3.97;;;10.50;46.30;;;;;;5058253;28;20465;-76
2024/01/07 03:24:36;;;;;;;5.50;3.67;;;10.50;46.70;;;;;;5063245;28;20474;-77
2024/01/07 03:27:05;;;;;;;4.80;4.13;;;10.50;46.70;;;;;;5039121;28;20437;-76
2024/01/07 03:29:33;;;;;;;5.70;4.27;;;10.50;46.50;;;;;;5064670;28;20470;-77
2024/01/07 03:32:01;;;;;;;5.17;3.90;;;10.40;46.60;;;;;;5062465;28;20468;-77
2024/01/07 03:34:30;;;;;;;6.43;3.80;;;10.40;46.70;;;;;;5056219;28;20454;-76
2024/01/07 03:36:58;;;;;;;7.27;3.50;;;10.50;46.80;;;;;;5068347;28;20450;-77
2024/01/07 03:39:27;;;;;;;5.13;3.77;;;10.50;47.10;;;;;;5054709;28;20478;-76
2024/01/07 03:41:56;;;;;;;5.97;3.90;;;10.50;46.40;;;;;;5067352;28;20453;-75
2024/01/07 03:44:24;;;;;;;6.33;3.80;;;10.50;46.60;;;;;;5056594;28;20463;-76
2024/01/07 03:46:52;;;;;;;3.80;3.50;;;10.60;46.50;;;;;;5053234;28;20451;-77
2024/01/07 03:49:20;;;;;;;3.60;3.00;;;10.60;46.80;;;;;;5065426;28;20445;-80
2024/01/07 03:51:50;;;;;;;5.40;3.00;;;10.60;46.00;;;;;;5056854;28;20492;-77
2024/01/07 03:54:18;;;;;;;5.63;3.67;;;10.60;46.10;;;;;;5056442;28;20501;-76
2024/01/07 03:56:47;;;;;;;3.70;2.93;;;10.60;45.90;;;;;;5062423;28;20442;-77
2024/01/07 03:59:15;;;;;;;3.40;2.83;;;10.50;45.90;;;;;;5057568;28;20466;-77
2024/01/07 04:01:43;;;;;;;5.43;3.00;;;10.50;45.60;;;;;;5050160;28;20474;-76
2024/01/07 04:04:11;;;;;;;3.57;3.03;;;10.50;45.90;;;;;;5063974;28;20462;-76
2024/01/07 04:06:39;;;;;;;3.00;2.63;;;10.50;45.80;;;;;;5052681;28;20716;-76
2024/01/07 04:09:09;;;;;;;3.03;2.60;;;10.50;45.80;;;;;;5058346;28;20442;-76
2024/01/07 04:11:41;;;;;;;2.70;2.50;;;10.60;45.60;;;;;;5061973;28;20442;-78
2024/01/07 04:14:09;;;;;;;4.90;2.50;;;10.50;45.50;;;;;;5051002;28;20470;-78
2024/01/07 04:16:37;;;;;;;3.73;2.70;;;10.50;45.40;;;;;;5067531;28;20458;-79
2024/01/07 04:19:05;;;;;;;4.93;2.37;;;10.40;45.40;;;;;;5067332;28;20542;-76
2024/01/07 04:21:34;;;;;;;2.57;2.23;;;10.40;46.30;;;;;;5057710;28;20430;-79
2024/01/07 04:24:02;;;;;;;4.03;2.60;;;10.50;46.20;;;;;;5065171;28;20579;-78
2024/01/07 04:26:31;;;;;;;2.80;2.60;;;10.40;45.70;;;;;;5061342;28;20530;-78
2024/01/07 04:28:59;;;;;;;2.80;2.40;;;10.50;45.80;;;;;;5055189;28;20475;-77
2024/01/07 04:31:27;;;;;;;2.47;2.30;;;10.50;45.50;;;;;;5060052;28;20441;-77
2024/01/07 04:33:55;;;;;;;3.33;2.47;;;10.50;45.40;;;;;;5071105;28;20484;-77
2024/01/07 04:36:23;;;;;;;3.67;2.70;;;10.60;45.10;;;;;;5055027;28;20446;-77
2024/01/07 04:38:51;;;;;;;4.20;2.33;;;10.60;45.00;;;;;;5062968;28;20473;-77
2024/01/07 04:41:19;;;;;;;10.23;6.00;;;10.50;45.40;;;;;;5057136;28;20446;-78
2024/01/07 04:43:48;;;;;;;9.80;6.03;;;10.50;45.30;;;;;;5058329;28;20521;-77
2024/01/07 04:46:16;;;;;;;10.53;6.23;;;10.50;45.20;;;;;;5050177;28;20462;-78
2024/01/07 04:48:44;;;;;;;13.17;6.90;;;10.50;45.00;;;;;;5050193;28;20530;-77
2024/01/07 04:51:11;;;;;;;16.50;8.93;;;10.40;45.10;;;;;;5045475;28;20462;-78
2024/01/07 04:53:39;;;;;;;16.50;8.77;;;10.40;45.60;;;;;;5069879;28;20528;-77
2024/01/07 04:56:07;;;;;;;15.33;8.70;;;10.50;45.70;;;;;;5063282;28;20469;-76
2024/01/07 04:58:35;;;;;;;15.37;8.60;;;10.50;45.50;;;;;;5053509;28;20482;-77
2024/01/07 05:01:04;;;;;;;14.50;7.70;;;10.60;45.40;;;;;;5063176;28;20490;-77
2024/01/07 05:03:33;;;;;;;21.83;11.10;;;10.60;45.40;;;;;;5049404;28;20457;-77
2024/01/07 05:06:02;;;;;;;19.10;10.30;;;10.50;45.30;;;;;;5050029;28;20442;-76
2024/01/07 05:08:30;;;;;;;12.93;6.83;;;10.50;45.70;;;;;;5057211;28;20450;-79
2024/01/07 05:10:58;;;;;;;17.43;9.10;;;10.50;45.30;;;;;;5063123;28;21004;-76
2024/01/07 05:13:26;;;;;;;13.43;7.90;;;10.50;45.60;;;;;;5064453;28;20443;-77
2024/01/07 05:15:54;;;;;;;10.13;6.53;;;10.50;45.70;;;;;;5049797;28;20474;-76
2024/01/07 05:18:24;;;;;;;13.10;7.60;;;10.40;45.70;;;;;;5050325;28;20453;-78
2024/01/07 05:20:53;;;;;;;8.00;5.50;;;10.40;45.70;;;;;;5049883;28;20410;-77
2024/01/07 05:23:20;;;;;;;9.50;5.90;;;10.40;45.90;;;;;;5054049;28;20536;-78
2024/01/07 05:25:48;;;;;;;11.87;6.60;;;10.50;45.40;;;;;;5063440;28;20447;-77
2024/01/07 05:28:19;;;;;;;13.00;6.20;;;10.50;45.40;;;;;;5061514;28;20492;-78
2024/01/07 05:30:46;;;;;;;9.50;5.53;;;10.50;45.70;;;;;;5069861;28;20422;-77
2024/01/07 05:33:15;;;;;;;7.67;5.17;;;10.50;45.50;;;;;;5069516;28;20432;-77
2024/01/07 05:35:44;;;;;;;9.90;4.73;;;10.50;45.00;;;;;;5069683;28;20489;-77
2024/01/07 05:38:12;;;;;;;5.40;4.20;;;10.50;44.80;;;;;;5069396;28;20480;-77
2024/01/07 05:40:40;;;;;;;5.90;4.00;;;10.30;45.20;;;;;;5060763;28;20562;-76
2024/01/07 05:43:07;;;;;;;6.17;4.20;;;10.30;44.90;;;;;;5063525;28;20525;-77
2024/01/07 05:45:35;;;;;;;4.57;3.40;;;10.30;44.80;;;;;;5069356;28;20453;-77
2024/01/07 05:48:04;;;;;;;3.83;3.37;;;10.30;45.10;;;;;;5060490;28;20443;-77
2024/01/07 05:50:32;;;;;;;5.43;3.43;;;10.30;44.90;;;;;;5057359;28;20536;-76
2024/01/07 05:53:02;;;;;;;3.60;3.10;;;10.30;44.60;;;;;;5056631;28;20510;-78
2024/01/07 05:55:30;;;;;;;4.90;3.17;;;10.20;44.60;;;;;;5044603;22;20578;-77
2024/01/07 05:57:59;;;;;;;3.40;2.87;;;10.20;44.70;;;;;;5024380;28;20495;-77
2024/01/07 06:00:27;;;;;;;4.70;3.00;;;10.20;44.50;;;;;;5025151;28;20479;-77
2024/01/07 06:02:55;;;;;;;4.73;2.97;;;10.20;45.40;;;;;;5029691;28;20531;-77
2024/01/07 06:05:23;;;;;;;6.00;3.07;;;10.20;44.60;;;;;;5049230;28;20541;-77
2024/01/07 06:07:51;;;;;;;2.70;2.50;;;10.20;44.80;;;;;;5041076;28;20455;-77
2024/01/07 06:10:20;;;;;;;4.30;2.30;;;10.20;44.60;;;;;;5051376;28;20450;-77
2024/01/07 06:12:49;;;;;;;4.20;2.90;;;10.10;44.80;;;;;;5052892;28;20450;-77
2024/01/07 06:15:17;;;;;;;2.80;2.60;;;10.20;44.90;;;;;;5048014;28;20463;-76
2024/01/07 06:17:46;;;;;;;2.30;2.00;;;10.10;44.90;;;;;;5037057;28;20505;-79
2024/01/07 06:20:14;;;;;;;2.23;2.03;;;10.10;45.20;;;;;;5050257;28;20524;-75
2024/01/07 06:22:43;;;;;;;3.30;2.70;;;10.10;45.20;;;;;;5035156;28;20447;-76
2024/01/07 06:25:11;;;;;;;5.47;1.70;;;10.10;44.60;;;;;;5047514;28;20486;-76
2024/01/07 06:27:41;;;;;;;1.77;1.67;;;10.20;44.50;;;;;;5051611;28;20465;-78
2024/01/07 06:30:09;;;;;;;2.83;2.00;;;10.10;44.60;;;;;;5039195;28;20454;-77
2024/01/07 06:32:38;;;;;;;1.90;1.80;;;10.10;44.60;;;;;;5046293;28;20445;-77
2024/01/07 06:35:07;;;;;;;3.90;2.17;;;10.10;44.40;;;;;;5049132;28;20468;-78
2024/01/07 06:37:35;;;;;;;2.40;2.30;;;10.10;44.60;;;;;;5052360;28;20450;-75
2024/01/07 06:40:04;;;;;;;3.10;2.17;;;10.10;44.40;;;;;;5040972;28;20475;-75
2024/01/07 06:42:32;;;;;;;2.20;1.90;;;10.10;44.50;;;;;;5045735;28;20565;-77
2024/01/07 06:45:02;;;;;;;3.20;2.33;;;10.10;44.30;;;;;;5048149;28;20467;-77
2024/01/07 06:47:31;;;;;;;2.30;2.10;;;10.20;44.20;;;;;;5043216;28;20481;-78
2024/01/07 06:49:58;;;;;;;2.27;2.07;;;10.10;44.10;;;;;;5042295;28;20435;-77
2024/01/07 06:52:27;;;;;;;2.57;2.10;;;10.20;43.90;;;;;;5040133;28;20464;-77
2024/01/07 06:54:54;;;;;;;1.97;1.73;;;10.10;44.00;;;;;;5040552;28;20489;-77
2024/01/07 06:57:22;;;;;;;2.10;2.00;;;10.10;44.20;;;;;;5042944;28;20529;-77
2024/01/07 06:59:50;;;;;;;1.80;1.70;;;10.10;43.80;;;;;;5051693;28;20505;-76
2024/01/07 07:02:21;;;;;;;3.73;1.93;;;10.20;44.00;;;;;;5037780;28;20432;-77
2024/01/07 07:04:50;;;;;;;2.33;2.20;;;10.20;44.20;;;;;;5035304;28;20518;-77
2024/01/07 07:07:19;;;;;;;2.43;2.23;;;10.20;44.40;;;;;;5031093;28;20498;-77
2024/01/07 07:09:47;;;;;;;2.70;1.93;;;10.20;44.00;;;;;;5037015;28;20489;-77
2024/01/07 07:12:15;;;;;;;2.83;2.13;;;10.20;44.00;;;;;;5038381;28;20474;-77
2024/01/07 07:14:43;;;;;;;2.90;1.90;;;10.20;44.30;;;;;;5048732;28;20459;-77
2024/01/07 07:17:12;;;;;;;4.50;2.20;;;10.20;44.60;;;;;;5046057;28;20442;-78
2024/01/07 07:19:42;;;;;;;2.77;1.90;;;10.20;44.50;;;;;;5060730;28;20451;-76
2024/01/07 07:22:13;;;;;;;2.80;1.80;;;10.20;44.40;;;;;;5047183;28;20446;-77
2024/01/07 07:24:41;;;;;;;3.10;1.90;;;10.30;44.50;;;;;;5048304;28;20550;-76
2024/01/07 07:27:10;;;;;;;1.77;1.67;;;10.30;44.40;;;;;;5038706;28;20486;-77
2024/01/07 07:29:37;;;;;;;2.00;1.90;;;10.30;44.30;;;;;;5043975;28;20446;-77
2024/01/07 07:32:06;;;;;;;2.63;1.73;;;10.30;44.50;;;;;;5051083;28;20518;-77
2024/01/07 07:34:34;;;;;;;2.10;2.00;;;10.30;44.50;;;;;;5052141;28;20480;-78
2024/01/07 07:37:04;;;;;;;4.27;2.70;;;10.30;44.50;;;;;;5043484;28;20471;-75
2024/01/07 07:39:32;;;;;;;3.70;2.40;;;10.40;44.70;;;;;;5042075;28;20430;-80
2024/01/07 07:42:00;;;;;;;2.50;2.00;;;10.40;44.30;;;;;;5043344;28;20476;-77
2024/01/07 07:44:28;;;;;;;1.77;1.67;;;10.40;44.00;;;;;;5049432;28;20482;-76
2024/01/07 07:47:02;;;;;;;5.83;1.53;;;10.40;44.00;;;;;;5041725;28;20466;-77
2024/01/07 07:49:30;;;;;;;4.87;1.80;;;10.40;43.70;;;;;;5036176;28;20522;-79
2024/01/07 07:51:58;;;;;;;1.63;1.53;;;10.30;42.60;;;;;;5039287;28;20915;-76
2024/01/07 07:54:28;;;;;;;1.60;1.50;;;10.20;43.20;;;;;;5040932;28;20978;-77
2024/01/07 07:56:55;;;;;;;1.60;1.50;;;10.30;42.80;;;;;;5044971;28;20442;-81
2024/01/07 07:59:23;;;;;;;1.70;1.50;;;10.30;43.00;;;;;;5039204;28;20474;-79
2024/01/07 08:01:51;;;;;;;2.40;1.50;;;10.30;42.90;;;;;;5038271;28;20510;-77
2024/01/07 08:04:19;;;;;;;2.10;1.80;;;10.40;43.00;;;;;;5045038;28;20452;-77
2024/01/07 08:06:47;;;;;;;2.03;1.73;;;10.40;43.40;;;;;;5035163;28;20462;-77
2024/01/07 08:09:15;;;;;;;1.60;1.50;;;10.40;43.40;;;;;;5044377;28;20450;-78
2024/01/07 08:11:45;;;;;;;1.40;1.30;;;10.50;43.50;;;;;;5045535;28;20457;-77
2024/01/07 08:14:12;;;;;;;1.50;1.40;;;10.50;43.70;;;;;;5044117;28;20871;-78
2024/01/07 08:16:42;;;;;;;3.97;2.23;;;10.40;43.90;;;;;;5037882;28;20436;-77
2024/01/07 08:19:10;;;;;;;1.77;1.67;;;10.50;43.80;;;;;;5050710;28;20512;-78
2024/01/07 08:21:38;;;;;;;1.90;1.80;;;10.40;44.00;;;;;;5042184;28;20544;-77
2024/01/07 08:24:06;;;;;;;2.67;2.00;;;10.50;44.00;;;;;;5034969;28;20477;-77
2024/01/07 08:26:34;;;;;;;2.27;2.10;;;10.50;44.20;;;;;;5042843;28;20463;-78
2024/01/07 08:29:03;;;;;;;4.17;2.20;;;10.60;44.50;;;;;;5039599;28;20454;-79
2024/01/07 08:31:32;;;;;;;3.00;2.10;;;10.60;44.70;;;;;;5038148;28;20462;-77
2024/01/07 08:34:02;;;;;;;2.07;1.80;;;10.70;44.80;;;;;;5052859;28;20524;-77
2024/01/07 08:36:30;;;;;;;2.33;1.73;;;10.80;45.00;;;;;;5068340;28;20798;-78
2024/01/07 08:38:58;;;;;;;2.00;1.90;;;10.90;45.20;;;;;;5066720;28;20443;-75
2024/01/07 08:41:25;;;;;;;1.80;1.70;;;10.90;45.20;;;;;;5053801;28;20562;-79
2024/01/07 08:43:53;;;;;;;1.60;1.50;;;10.90;45.40;;;;;;5051116;28;20465;-77
2024/01/07 08:46:22;;;;;;;3.77;2.73;;;11.00;45.60;;;;;;5072610;28;20462;-78
2024/01/07 08:48:50;;;;;;;3.33;2.27;;;11.00;45.60;;;;;;5056047;28;20435;-77
2024/01/07 08:51:19;;;;;;;2.43;2.33;;;11.00;45.50;;;;;;5035811;28;20452;-78
2024/01/07 08:53:47;;;;;;;2.77;2.40;;;11.10;45.60;;;;;;5039362;28;20447;-78
2024/01/07 08:56:15;;;;;;;3.20;2.93;;;11.10;45.90;;;;;;5050195;28;20455;-78
2024/01/07 08:58:43;;;;;;;4.50;3.10;;;11.20;45.90;;;;;;5049703;28;20471;-78
2024/01/07 09:01:14;;;;;;;3.57;3.23;;;11.30;45.80;;;;;;5041526;28;21048;-77
2024/01/07 09:03:43;;;;;;;4.63;3.77;;;11.30;45.80;;;;;;5053807;28;20526;-79
2024/01/07 09:06:12;;;;;;;6.70;3.03;;;11.30;45.70;;;;;;5046701;28;20475;-78
2024/01/07 09:08:40;;;;;;;5.57;3.77;;;11.30;45.70;;;;;;5036002;28;20497;-80
2024/01/07 09:11:11;;;;;;;4.00;3.60;;;11.20;45.40;;;;;;5051053;28;20458;-76
2024/01/07 09:13:39;;;;;;;5.83;3.90;;;11.20;45.30;;;;;;5052559;28;20534;-75
2024/01/07 09:16:11;;;;;;;4.10;3.50;;;11.00;45.40;;;;;;5033050;28;20450;-75
2024/01/07 09:18:40;;;;;;;5.53;3.60;;;11.00;45.60;;;;;;5032468;28;20439;-75
2024/01/07 09:21:09;;;;;;;2.97;2.80;;;11.00;45.20;;;;;;5042793;28;20469;-75
2024/01/07 09:23:37;;;;;;;4.23;3.20;;;11.10;45.10;;;;;;5037828;28;20531;-76
2024/01/07 09:26:05;;;;;;;2.90;2.70;;;11.20;45.30;;;;;;5031979;28;21053;-77
2024/01/07 09:28:33;;;;;;;4.70;2.80;;;11.20;45.30;;;;;;5033019;28;20535;-77
2024/01/07 09:31:07;;;;;;;2.80;2.50;;;11.30;45.30;;;;;;5050293;28;20459;-76
2024/01/07 09:33:35;;;;;;;3.27;2.97;;;11.30;45.20;;;;;;5048154;28;20458;-75
2024/01/07 09:36:05;;;;;;;3.20;2.90;;;11.40;45.60;;;;;;5035199;28;20491;-78
2024/01/07 09:38:50;;;;;;;5.40;3.50;;;11.40;45.30;;;;;;5043542;28;20465;-76
2024/01/07 09:41:19;;;;;;;5.13;3.80;;;11.50;45.90;;;;;;5057560;28;20467;-76
2024/01/07 09:43:48;;;;;;;6.20;3.60;;;11.60;45.90;;;;;;5041595;28;20447;-76
2024/01/07 09:46:16;;;;;;;5.47;3.00;;;11.80;46.20;;;;;;5047606;28;20539;-79
2024/01/07 09:48:45;;;;;;;5.87;3.27;;;11.90;46.10;;;;;;5053316;28;20529;-76
2024/01/07 09:51:13;;;;;;;5.03;2.90;;;11.90;46.40;;;;;;5057018;28;20533;-76
2024/01/07 09:53:41;;;;;;;12.30;3.30;;;12.00;46.40;;;;;;5058137;28;20513;-76
2024/01/07 09:56:16;;;;;;;3.20;2.90;;;12.00;46.80;;;;;;5058171;28;20473;-77
2024/01/07 09:58:47;;;;;;;3.37;3.07;;;12.00;46.80;;;;;;5058089;28;20446;-76
2024/01/07 10:01:16;;;;;;;4.23;3.00;;;12.10;47.50;;;;;;5057437;28;20438;-76
2024/01/07 10:03:45;;;;;;;3.90;3.10;;;12.30;47.40;;;;;;5045139;28;20469;-77
2024/01/07 10:06:13;;;;;;;3.47;3.20;;;12.40;47.10;;;;;;5042027;28;20442;-76
2024/01/07 10:08:41;;;;;;;3.30;2.83;;;12.60;47.20;;;;;;5055449;28;20513;-75
2024/01/07 10:11:10;;;;;;;4.03;3.20;;;12.80;47.00;;;;;;5055751;28;20538;-76
2024/01/07 10:13:40;;;;;;;3.93;3.00;;;12.80;46.90;;;;;;5049069;28;20534;-76
2024/01/07 10:16:09;;;;;;;4.47;3.50;;;13.00;46.90;;;;;;5049847;28;20434;-76
2024/01/07 10:18:37;;;;;;;4.57;3.03;;;13.00;46.20;;;;;;5050136;28;20446;-77
2024/01/07 10:21:07;;;;;;;3.37;3.10;;;13.20;47.50;;;;;;5048523;28;20476;-77
2024/01/07 10:23:35;;;;;;;4.63;3.43;;;13.50;47.10;;;;;;5053775;28;20552;-77
2024/01/07 10:26:04;;;;;;;3.83;3.50;;;13.60;46.60;;;;;;5055734;28;20494;-77
2024/01/07 10:28:48;;;;;;;7.83;3.87;;;13.70;46.10;;;;;;5039822;28;20512;-77
2024/01/07 10:31:17;;;;;;;5.73;3.60;;;13.60;45.60;;;;;;5055237;28;20439;-77
2024/01/07 10:33:46;;;;;;;4.13;3.77;;;13.70;45.60;;;;;;5050544;28;20446;-77
2024/01/07 10:36:14;;;;;;;6.23;4.10;;;13.80;45.30;;;;;;5052968;28;20440;-75
2024/01/07 10:38:43;;;;;;;5.40;4.00;;;13.80;45.30;;;;;;5049978;28;20467;-76
2024/01/07 10:41:12;;;;;;;6.17;4.20;;;13.90;45.50;;;;;;5056369;28;20446;-76
2024/01/07 10:43:41;;;;;;;4.43;3.90;;;14.00;45.40;;;;;;5052089;28;20488;-76
2024/01/07 10:46:11;;;;;;;9.10;4.40;;;14.20;45.40;;;;;;5054042;28;20458;-78
2024/01/07 10:48:39;;;;;;;4.23;3.57;;;14.30;45.30;;;;;;5051865;28;20439;-75
2024/01/07 10:51:07;;;;;;;5.77;3.70;;;14.30;44.80;;;;;;5054163;28;20484;-76
2024/01/07 10:53:35;;;;;;;3.47;3.17;;;14.40;44.70;;;;;;5054223;28;20525;-75
2024/01/07 10:56:04;;;;;;;3.93;3.50;;;14.40;44.40;;;;;;5055254;28;20505;-76
2024/01/07 10:58:33;;;;;;;3.80;2.87;;;14.60;44.80;;;;;;5048747;28;20439;-75
2024/01/07 11:01:03;;;;;;;4.63;3.27;;;14.60;44.50;;;;;;5047089;28;20445;-76
2024/01/07 11:03:37;;;;;;;3.60;3.30;;;14.70;44.30;;;;;;5048633;28;20473;-76
2024/01/07 11:06:09;;;;;;;3.70;3.03;;;14.70;43.40;;;;;;5051382;28;20467;-75
2024/01/07 11:08:38;;;;;;;5.20;4.10;;;14.70;43.50;;;;;;5053652;28;20466;-78
2024/01/07 11:11:08;;;;;;;5.43;4.03;;;15.00;44.20;;;;;;5057497;28;20477;-76
2024/01/07 11:13:37;;;;;;;5.90;3.83;;;15.00;43.40;;;;;;5056729;28;20450;-78
2024/01/07 11:16:09;;;;;;;7.93;4.63;;;15.20;43.80;;;;;;5045126;28;20474;-76
2024/01/07 11:18:40;;;;;;;7.07;5.00;;;15.40;43.10;;;;;;5048543;28;20472;-77
2024/01/07 11:21:09;;;;;;;7.70;5.13;;;15.70;43.20;;;;;;5049238;28;20455;-80
2024/01/07 11:23:39;;;;;;;6.13;4.57;;;15.90;42.50;;;;;;5050315;28;20534;-77
2024/01/07 11:26:09;;;;;;;5.37;4.20;;;16.10;42.70;;;;;;5049777;28;20475;-78
2024/01/07 11:28:47;;;;;;;5.97;3.70;;;16.30;42.00;;;;;;5049958;28;20438;-77
2024/01/07 11:31:16;;;;;;;4.20;3.80;;;16.40;41.30;;;;;;5050436;28;20477;-77
2024/01/07 11:33:46;;;;;;;5.67;3.40;;;16.40;41.20;;;;;;5048451;28;20497;-77
2024/01/07 11:36:15;;;;;;;5.73;3.73;;;16.50;41.30;;;;;;5049455;28;20462;-77
2024/01/07 11:38:43;;;;;;;3.70;3.00;;;16.60;40.80;;;;;;5043989;28;20465;-78
2024/01/07 11:41:12;;;;;;;3.90;3.50;;;16.60;40.40;;;;;;5050478;28;20513;-76
2024/01/07 11:43:53;;;;;;;4.43;3.37;;;16.80;40.80;;;;;;5051406;28;20561;-77
2024/01/07 11:46:22;;;;;;;4.90;3.67;;;17.00;40.50;;;;;;5052722;28;20426;-77
2024/01/07 11:48:51;;;;;;;3.57;2.83;;;17.10;40.60;;;;;;5051917;28;20470;-77
2024/01/07 11:51:19;;;;;;;3.60;3.30;;;17.20;39.90;;;;;;5051751;28;20431;-77
2024/01/07 11:53:48;;;;;;;7.10;3.73;;;17.40;39.70;;;;;;5052262;28;20430;-77
2024/01/07 11:56:16;;;;;;;3.17;2.87;;;17.50;38.90;;;;;;5071336;22;20552;-74
2024/01/07 11:58:44;;;;;;;3.03;2.83;;;17.50;39.00;;;;;;5048672;28;20471;-74
2024/01/07 12:01:12;;;;;;;3.40;3.20;;;17.40;38.30;;;;;;5033924;28;20484;-75
2024/01/07 12:03:41;;;;;;;4.40;3.23;;;17.40;38.30;;;;;;5042144;28;20467;-75
2024/01/07 12:06:13;;;;;;;4.10;3.27;;;17.30;38.20;;;;;;5030606;28;20451;-74
2024/01/07 12:08:41;;;;;;;3.77;3.13;;;17.20;38.10;;;;;;5046404;28;20454;-74
2024/01/07 12:11:09;;;;;;;5.60;3.30;;;17.20;38.80;;;;;;5041238;28;20450;-77
2024/01/07 12:13:37;;;;;;;3.77;3.37;;;17.40;37.90;;;;;;5045904;28;20430;-75
2024/01/07 12:16:05;;;;;;;4.70;3.60;;;17.50;38.10;;;;;;5048498;28;20478;-77
2024/01/07 12:18:33;;;;;;;4.73;3.27;;;17.50;37.90;;;;;;5045740;28;20435;-75
2024/01/07 12:21:01;;;;;;;3.43;3.17;;;17.60;38.00;;;;;;5049376;28;20444;-76
2024/01/07 12:23:34;;;;;;;6.17;3.37;;;17.70;38.50;;;;;;5046727;28;20475;-75
2024/01/07 12:26:08;;;;;;;4.40;3.33;;;17.70;37.70;;;;;;5049095;28;20969;-76
2024/01/07 12:28:36;;;;;;;4.20;3.40;;;17.70;37.10;;;;;;5049692;28;20523;-75
2024/01/07 12:31:04;;;;;;;3.80;2.80;;;17.80;37.30;;;;;;5046876;28;20493;-76
2024/01/07 12:33:33;;;;;;;6.20;3.90;;;17.80;37.20;;;;;;5040444;28;20438;-75
2024/01/07 12:36:01;;;;;;;3.73;3.43;;;17.70;36.70;;;;;;5049710;28;20450;-75
2024/01/07 12:38:31;;;;;;;4.67;3.63;;;17.70;36.30;;;;;;5047633;28;20473;-76
2024/01/07 12:40:59;;;;;;;4.00;3.60;;;17.70;37.10;;;;;;5049316;28;20430;-75
2024/01/07 12:43:27;;;;;;;4.87;3.83;;;17.60;36.70;;;;;;5046990;28;20452;-76
2024/01/07 12:45:56;;;;;;;7.47;4.07;;;17.40;36.70;;;;;;5046688;28;20470;-78
2024/01/07 12:48:24;;;;;;;10.30;3.87;;;17.50;36.90;;;;;;5045821;28;20474;-75
2024/01/07 12:50:52;;;;;;;4.83;4.20;;;17.60;36.50;;;;;;5049039;28;20441;-75
2024/01/07 12:53:20;;;;;;;4.90;4.40;;;17.70;36.60;;;;;;5049343;28;20472;-75